createdAt,value
2023-03-16T00:00:51.397Z,2.8
2023-03-16T00:06:34.982Z,2.2
2023-03-16T00:12:19.430Z,2.3
2023-03-16T00:18:03.271Z,2.2
2023-03-16T00:23:47.096Z,2.3
2023-03-16T00:29:31.012Z,2.3
2023-03-16T00:35:14.819Z,2.1
2023-03-16T00:40:58.585Z,2.3
2023-03-16T00:46:42.230Z,2.3
2023-03-16T00:52:25.945Z,2.1
2023-03-16T00:58:10.427Z,2.1
2023-03-16T01:03:54.022Z,1.9
2023-03-16T01:09:38.122Z,2
2023-03-16T01:15:21.889Z,2.1
2023-03-16T01:21:06.929Z,2.2
2023-03-16T01:26:50.717Z,1.9
2023-03-16T01:32:34.762Z,1.8
2023-03-16T01:38:18.675Z,1.8
2023-03-16T01:44:02.435Z,1.8
2023-03-16T01:49:47.212Z,1.9
2023-03-16T01:55:30.997Z,1.9
2023-03-16T02:01:16.947Z,1.8
2023-03-16T02:07:01.669Z,1.8
2023-03-16T02:12:45.986Z,1.8
2023-03-16T02:18:30.179Z,1.8
2023-03-16T02:24:13.778Z,1.8
2023-03-16T02:30:00.972Z,1.6
2023-03-16T02:35:45.087Z,1.7
2023-03-16T02:41:29.782Z,1.8
2023-03-16T02:47:16.279Z,1.7
2023-03-16T02:52:59.931Z,1.7
2023-03-16T02:58:43.774Z,1.8
2023-03-16T03:04:27.442Z,1.6
2023-03-16T03:10:12.296Z,1.7
2023-03-16T03:15:56.188Z,1.7
2023-03-16T03:21:40.945Z,1.7
2023-03-16T03:27:24.834Z,1.6
2023-03-16T03:33:09.877Z,1.6
2023-03-16T03:38:53.392Z,1.6
2023-03-16T03:44:37.304Z,1.6
2023-03-16T03:50:21.148Z,1.4
2023-03-16T03:56:05.037Z,1.5
2023-03-16T04:01:48.962Z,1.7
2023-03-16T04:07:32.845Z,1.6
2023-03-16T04:13:16.551Z,1.5
2023-03-16T04:19:00.214Z,1.4
2023-03-16T04:24:44.192Z,1.4
2023-03-16T04:30:30.016Z,1.5
2023-03-16T04:36:14.376Z,1.4
2023-03-16T04:41:58.392Z,1.5
2023-03-16T04:47:42.354Z,1.6
2023-03-16T04:53:26.417Z,1.4
2023-03-16T04:59:10.110Z,1.2
2023-03-16T05:04:53.804Z,1.5
2023-03-16T05:10:37.571Z,1.4
2023-03-16T05:16:21.404Z,1.4
2023-03-16T05:22:05.321Z,1.3
2023-03-16T05:27:49.879Z,1.3
2023-03-16T05:33:36.391Z,1.4
2023-03-16T05:39:20.087Z,1.2
2023-03-16T05:45:03.950Z,1.6
2023-03-16T05:50:47.596Z,1.5
2023-03-16T05:56:31.139Z,1.2
2023-03-16T06:02:15.051Z,1.5
2023-03-16T06:07:58.661Z,1.4
2023-03-16T06:13:42.646Z,1.4
2023-03-16T06:19:26.326Z,1.4
2023-03-16T06:25:11.178Z,1.8
2023-03-16T06:30:54.838Z,1.7
2023-03-16T06:36:38.609Z,1.4
2023-03-16T06:42:22.364Z,1.7
2023-03-16T06:48:06.247Z,1.8
2023-03-16T06:53:50.119Z,1.8
2023-03-16T06:59:34.075Z,1.9
2023-03-16T07:05:17.865Z,2
2023-03-16T07:11:01.593Z,1.8
2023-03-16T07:16:45.400Z,1.9
2023-03-16T07:22:29.219Z,1.8
2023-03-16T07:28:13.043Z,2.7
2023-03-16T07:33:57.605Z,1.9
2023-03-16T07:39:41.206Z,2
2023-03-16T07:45:24.898Z,1.9
2023-03-16T07:51:09.194Z,1.8
2023-03-16T07:56:52.941Z,1.7
2023-03-16T08:02:36.708Z,1.7
2023-03-16T08:08:20.584Z,1.8
2023-03-16T08:14:07.495Z,1.6
2023-03-16T08:19:51.502Z,1.7
2023-03-16T08:25:35.258Z,1.5
2023-03-16T08:31:19.523Z,1.6
2023-03-16T08:37:03.459Z,1.9
2023-03-16T08:42:47.247Z,1.7
2023-03-16T08:48:30.945Z,1.4
2023-03-16T08:54:14.656Z,1.3
2023-03-16T08:59:58.332Z,1.5
2023-03-16T09:05:42.067Z,1.3
2023-03-16T09:11:26.115Z,1.3
2023-03-16T09:17:10.783Z,1.2
2023-03-16T09:22:54.619Z,1.2
2023-03-16T09:28:38.850Z,1.2
2023-03-16T09:40:13.835Z,1.1
2023-03-16T09:46:01.231Z,1.3
2023-03-16T09:51:48.921Z,1.1
2023-03-16T09:57:34.436Z,1.1
2023-03-16T10:03:26.165Z,1.3
2023-03-16T10:09:16.316Z,1.2
2023-03-16T10:15:04.513Z,1
2023-03-16T10:20:48.291Z,1
2023-03-16T10:26:35.113Z,1.1
2023-03-16T10:32:20.008Z,1
2023-03-16T10:38:03.868Z,1.1
2023-03-16T10:43:48.399Z,1.1
2023-03-16T10:49:37.015Z,1.1
2023-03-16T10:55:22.627Z,1.1
2023-03-16T11:01:11.416Z,1.1
2023-03-16T11:06:58.460Z,0.9
2023-03-16T11:12:42.512Z,0.9
2023-03-16T11:18:30.454Z,0.9
2023-03-16T11:24:19.531Z,0.9
2023-03-16T11:30:11.435Z,1
2023-03-16T11:36:01.411Z,1
2023-03-16T11:41:51.995Z,1.2
2023-03-16T11:47:47.026Z,0.9
2023-03-16T11:53:39.234Z,1.1
2023-03-16T12:00:00.961Z,0.9
2023-03-16T12:05:49.642Z,1
2023-03-16T12:11:36.889Z,0.9
2023-03-16T12:17:26.951Z,1
2023-03-16T12:23:13.805Z,1
2023-03-16T12:28:58.751Z,1
2023-03-16T12:34:45.476Z,0.9
2023-03-16T12:40:33.928Z,0.9
2023-03-16T12:46:22.725Z,1
2023-03-16T12:52:08.526Z,1
2023-03-16T12:58:00.412Z,1
2023-03-16T13:03:45.072Z,1
2023-03-16T13:09:30.199Z,1
2023-03-16T13:15:25.056Z,1
2023-03-16T13:21:19.613Z,1
2023-03-16T13:27:05.719Z,1
2023-03-16T13:32:50.137Z,0.8
2023-03-16T13:38:33.815Z,1
2023-03-16T13:44:19.040Z,0.9
2023-03-16T13:50:02.770Z,1
2023-03-16T13:55:48.073Z,1.2
2023-03-16T14:01:32.583Z,1
2023-03-16T14:07:20.715Z,1
2023-03-16T14:13:09.502Z,1
2023-03-16T14:18:54.181Z,0.9
2023-03-16T14:24:39.851Z,0.9
2023-03-16T14:30:25.211Z,0.9
2023-03-16T14:36:19.216Z,0.8
2023-03-16T14:42:04.764Z,1.4
2023-03-16T14:47:49.912Z,0.9
2023-03-16T14:53:33.773Z,0.9
2023-03-16T14:59:17.417Z,0.9
2023-03-16T15:05:02.314Z,0.9
2023-03-16T15:10:46.528Z,0.9
2023-03-16T15:16:30.322Z,0.9
2023-03-16T15:22:15.317Z,0.9
2023-03-16T15:27:59.520Z,0.9
2023-03-16T15:33:43.266Z,0.9
2023-03-16T15:39:27.041Z,0.8
2023-03-16T15:45:12.667Z,0.8
2023-03-16T15:50:58.929Z,1
2023-03-16T15:56:55.310Z,0.7
2023-03-16T16:02:38.939Z,0.7
2023-03-16T16:08:23.568Z,0.8
2023-03-16T16:14:07.580Z,0.8
2023-03-16T16:19:51.214Z,0.9
2023-03-16T16:25:37.781Z,0.8
2023-03-16T16:31:22.323Z,0.9
2023-03-16T16:37:06.160Z,0.9
2023-03-16T16:42:50.951Z,1
2023-03-16T16:48:37.168Z,1.1
2023-03-16T16:54:21.319Z,1.1
2023-03-16T17:00:05.478Z,1.1
2023-03-16T17:05:49.250Z,1.2
2023-03-16T17:11:33.328Z,1.3
2023-03-16T17:17:18.987Z,1.2
2023-03-16T17:23:02.601Z,1.3
2023-03-16T17:28:48.480Z,1.2
2023-03-16T17:34:34.359Z,1.2
2023-03-16T17:40:20.557Z,1.3
2023-03-16T17:46:05.584Z,1.5
2023-03-16T17:51:49.383Z,1.4
2023-03-16T17:57:34.677Z,1.3
2023-03-16T18:03:19.025Z,1.4
2023-03-16T18:09:02.700Z,1.4
2023-03-16T18:14:46.472Z,1.5
2023-03-16T18:20:32.448Z,1.3
2023-03-16T18:26:17.993Z,1.3
2023-03-16T18:32:01.760Z,1.4
2023-03-16T18:37:45.790Z,1.5
2023-03-16T18:43:30.435Z,1.6
2023-03-16T18:49:18.359Z,1.5
2023-03-16T18:55:02.188Z,1.7
2023-03-16T19:00:47.519Z,1.7
2023-03-16T19:06:32.393Z,1.5
2023-03-16T19:12:17.683Z,1.6
2023-03-16T19:18:01.938Z,1.7
2023-03-16T19:23:47.021Z,1.8
2023-03-16T19:29:32.933Z,1.8
2023-03-16T19:35:19.683Z,1.8
2023-03-16T19:41:03.743Z,1.9
2023-03-16T19:46:47.935Z,1.8
2023-03-16T19:52:31.670Z,1.8
2023-03-16T19:58:23.267Z,1.9
2023-03-16T20:04:12.304Z,1.7
2023-03-16T20:09:56.367Z,1.8
2023-03-16T20:15:41.150Z,1.6
2023-03-16T20:21:25.007Z,1.7
2023-03-16T20:27:11.139Z,1.7
2023-03-16T20:32:55.350Z,1.6
2023-03-16T20:38:39.549Z,1.7
2023-03-16T20:44:24.311Z,1.7
2023-03-16T20:50:12.897Z,1.5
2023-03-16T20:55:57.165Z,1.6
2023-03-16T21:01:40.928Z,1.7
2023-03-16T21:07:25.902Z,1.7
2023-03-16T21:13:15.781Z,1.5
2023-03-16T21:18:59.474Z,1.5
2023-03-16T21:24:43.329Z,1.6
2023-03-16T21:30:30.137Z,1.7
2023-03-16T21:36:16.483Z,1.5
2023-03-16T21:42:00.300Z,1.5
2023-03-16T21:47:44.506Z,1.5
2023-03-16T21:53:31.618Z,1.6
2023-03-16T21:59:15.328Z,1.5
2023-03-16T22:04:59.865Z,1.6
2023-03-16T22:10:43.601Z,1.5
2023-03-16T22:16:28.081Z,1.4
2023-03-16T22:22:15.128Z,1.4
2023-03-16T22:27:58.790Z,1.4
2023-03-16T22:33:42.531Z,1.5
2023-03-16T22:39:26.279Z,1.7
2023-03-16T22:45:16.279Z,1.6
2023-03-16T22:51:01.408Z,1.4
2023-03-16T22:56:46.512Z,1.3
2023-03-16T23:02:30.545Z,1.5
2023-03-16T23:08:16.364Z,1.2
2023-03-16T23:14:00.477Z,1.4
2023-03-16T23:19:44.140Z,1.6
2023-03-16T23:25:27.881Z,1.6
2023-03-16T23:31:12.212Z,1.5
2023-03-16T23:36:56.101Z,1.4
2023-03-16T23:42:40.144Z,1.4
2023-03-16T23:48:23.934Z,1.5
2023-03-16T23:54:12.195Z,1.4
2023-03-16T23:59:55.912Z,1.6
